Time;durP1;ratioP1;P1;durP2;ratioP2;P2;SDS_P1;SDS_P2;PMS_P1;PMS_P2;Temp;Humidity;BMP_temperature;BMP_pressure;BME280_temperature;BME280_humidity;BME280_pressure;Samples;Min_cycle;Max_cycle;Signal;HPM_P1;HPM_P2
2021/04/02 11:37:47;;;;;;;10.45;2.83;;;8.30;99.90;;;;;;4967857;28;20062;-81
2021/04/02 11:40:16;;;;;;;13.10;2.90;;;8.50;99.90;;;;;;4960773;29;20051;-85
2021/04/02 11:42:43;;;;;;;5.68;2.92;;;8.50;99.90;;;;;;4966099;28;20101;-85
2021/04/02 11:45:11;;;;;;;9.32;2.90;;;8.50;99.90;;;;;;4969330;29;20078;-80
2021/04/02 11:47:37;;;;;;;5.15;3.05;;;8.50;99.90;;;;;;4960058;29;20051;-85
2021/04/02 11:50:05;;;;;;;6.38;2.67;;;8.50;99.90;;;;;;4959881;29;20051;-78
2021/04/02 11:52:32;;;;;;;7.18;2.47;;;8.60;99.90;;;;;;4960509;29;20081;-90
2021/04/02 11:54:59;;;;;;;10.70;3.35;;;8.60;99.90;;;;;;4961039;29;20063;-88
2021/04/02 11:57:26;;;;;;;5.90;2.30;;;8.60;99.90;;;;;;4960452;29;20059;-88
2021/04/02 11:59:53;;;;;;;6.88;2.53;;;8.70;99.90;;;;;;4973011;28;20403;-88
2021/04/02 12:02:20;;;;;;;8.23;3.10;;;8.70;99.90;;;;;;4979878;28;20062;-88
2021/04/02 12:04:47;;;;;;;7.47;3.22;;;8.70;99.90;;;;;;4979567;28;20059;-88
2021/04/02 12:07:13;;;;;;;11.32;3.33;;;8.60;99.90;;;;;;4979700;28;20061;-88
2021/04/02 12:09:40;;;;;;;10.48;4.20;;;8.60;99.90;;;;;;4979879;28;20054;-89
2021/04/02 12:12:09;;;;;;;6.60;2.65;;;8.60;99.90;;;;;;4979767;28;20084;-89
2021/04/02 12:14:35;;;;;;;8.50;3.10;;;8.70;99.90;;;;;;4979590;28;20046;-89
2021/04/02 12:17:02;;;;;;;12.15;5.18;;;8.80;99.90;;;;;;4979416;28;20384;-89
2021/04/02 12:19:29;;;;;;;7.43;2.97;;;8.90;99.90;;;;;;4979317;28;20057;-89
2021/04/02 12:21:55;;;;;;;6.88;2.28;;;9.10;99.90;;;;;;4979557;28;20352;-90
2021/04/02 12:24:22;;;;;;;8.65;2.53;;;9.20;99.90;;;;;;4979314;28;20051;-90
2021/04/02 12:26:49;;;;;;;5.47;3.08;;;9.30;99.90;;;;;;4979061;28;20042;-89
2021/04/02 12:29:16;;;;;;;7.55;2.72;;;9.30;99.90;;;;;;4979459;28;20054;-90
2021/04/02 12:31:43;;;;;;;10.90;3.03;;;9.30;99.90;;;;;;4979332;28;20132;-89
2021/04/02 12:34:09;;;;;;;8.20;3.30;;;9.40;99.90;;;;;;4978598;28;20051;-90
2021/04/02 12:36:36;;;;;;;24.30;13.02;;;9.40;99.90;;;;;;4979060;28;20050;-86
2021/04/02 12:39:03;;;;;;;7.75;3.30;;;9.40;99.90;;;;;;4978626;28;20061;-85
2021/04/02 12:41:29;;;;;;;10.70;2.75;;;9.40;99.90;;;;;;4978709;28;20065;-92
2021/04/02 12:43:56;;;;;;;9.68;2.67;;;9.50;99.90;;;;;;4978606;28;20081;-91
2021/04/02 12:46:24;;;;;;;11.57;3.63;;;9.60;99.90;;;;;;4978915;28;20058;-90
2021/04/02 12:48:50;;;;;;;9.07;3.38;;;9.70;99.90;;;;;;4978537;28;20096;-89
2021/04/02 12:51:17;;;;;;;7.10;3.00;;;9.70;99.90;;;;;;4978771;28;20125;-90
2021/04/02 12:53:44;;;;;;;8.20;2.95;;;9.70;99.90;;;;;;4977567;28;20046;-87
2021/04/02 12:56:10;;;;;;;5.95;2.67;;;9.70;99.90;;;;;;4978176;28;20061;-89
2021/04/02 12:58:37;;;;;;;8.75;2.58;;;9.80;99.90;;;;;;4975566;28;20369;-90
2021/04/02 13:01:04;;;;;;;5.90;2.22;;;9.90;99.90;;;;;;4959008;29;20047;-87
2021/04/02 13:03:32;;;;;;;6.68;2.63;;;9.90;99.90;;;;;;4959170;29;20057;-90
2021/04/02 13:05:58;;;;;;;5.22;2.70;;;9.90;99.90;;;;;;4959460;29;20122;-90
2021/04/02 13:08:25;;;;;;;5.35;3.33;;;9.90;99.90;;;;;;4958768;29;20055;-90
2021/04/02 13:10:51;;;;;;;8.60;3.72;;;10.00;99.90;;;;;;4959654;29;20083;-90
2021/04/02 13:13:18;;;;;;;5.70;2.55;;;10.10;99.90;;;;;;4958909;29;20047;-90
2021/04/02 13:15:45;;;;;;;27.65;11.02;;;10.10;99.90;;;;;;4959054;29;20055;-89
2021/04/02 13:18:11;;;;;;;5.88;2.83;;;10.10;99.90;;;;;;4959027;29;20059;-90
2021/04/02 13:20:39;;;;;;;5.47;3.55;;;10.10;99.90;;;;;;4958898;29;20365;-90
2021/04/02 13:23:05;;;;;;;5.07;2.88;;;10.20;99.90;;;;;;4958717;29;20523;-90
2021/04/02 13:25:32;;;;;;;7.70;2.92;;;10.20;99.90;;;;;;4958913;29;20082;-90
2021/04/02 13:27:59;;;;;;;11.93;3.60;;;10.10;99.90;;;;;;4959042;29;20358;-89
2021/04/02 13:30:26;;;;;;;6.60;2.58;;;10.10;99.90;;;;;;4958468;29;20461;-88
2021/04/02 13:32:53;;;;;;;8.10;2.83;;;10.10;99.90;;;;;;4957862;29;20058;-86
2021/04/02 13:35:20;;;;;;;9.15;2.40;;;10.10;99.90;;;;;;4958540;29;20055;-91
2021/04/02 13:37:48;;;;;;;4.25;2.50;;;10.00;99.90;;;;;;4958151;29;20057;-89
2021/04/02 13:40:15;;;;;;;11.20;3.55;;;10.10;99.90;;;;;;4958674;29;20151;-93
2021/04/02 13:42:42;;;;;;;5.15;2.10;;;10.00;99.90;;;;;;4958385;29;20488;-93
2021/04/02 13:45:10;;;;;;;9.32;3.25;;;9.90;99.90;;;;;;4958343;29;20058;-90
2021/04/02 13:47:36;;;;;;;8.27;2.58;;;9.90;99.90;;;;;;4958296;29;20216;-87
2021/04/02 13:50:04;;;;;;;7.10;2.60;;;9.90;99.90;;;;;;4958812;29;20089;-92
2021/04/02 13:52:31;;;;;;;6.65;2.60;;;9.80;99.90;;;;;;4958258;29;20070;-89
2021/04/02 13:54:58;;;;;;;4.65;2.88;;;9.80;99.90;;;;;;4958299;29;20162;-88
2021/04/02 13:57:25;;;;;;;5.43;1.80;;;10.00;99.90;;;;;;4957881;29;20046;-89
2021/04/02 13:59:52;;;;;;;6.47;2.38;;;10.00;99.90;;;;;;4970620;28;20124;-91
2021/04/02 14:02:18;;;;;;;5.60;2.40;;;10.00;99.90;;;;;;4977574;28;20046;-91
2021/04/02 14:04:46;;;;;;;9.88;2.67;;;10.20;99.80;;;;;;4976778;28;20065;-91
2021/04/02 14:07:13;;;;;;;5.50;2.42;;;10.20;99.90;;;;;;4976917;28;20043;-89
2021/04/02 14:09:39;;;;;;;8.68;2.63;;;10.20;99.90;;;;;;4977445;28;20065;-89
2021/04/02 14:12:08;;;;;;;6.32;2.47;;;10.30;99.50;;;;;;4977313;28;20065;-90
2021/04/02 14:35:05;;;;;;;7.60;2.67;;;10.40;98.80;;;;;;4976168;28;20074;-90
2021/04/02 14:40:54;;;;;;;5.30;2.10;;;10.70;97.20;;;;;;4976948;28;20081;-90
2021/04/02 14:43:21;;;;;;;4.95;2.33;;;10.70;98.70;;;;;;4976481;28;20460;-88
2021/04/02 14:45:48;;;;;;;9.50;3.80;;;10.60;97.70;;;;;;4976213;28;20090;-93
2021/04/02 14:48:15;;;;;;;6.68;4.00;;;10.70;96.50;;;;;;4976097;28;20081;-88
2021/04/02 14:50:42;;;;;;;5.40;2.25;;;10.70;96.60;;;;;;4976178;28;20065;-88
2021/04/02 14:53:09;;;;;;;5.32;2.17;;;10.70;95.80;;;;;;4976304;28;20050;-88
2021/04/02 14:55:36;;;;;;;4.78;2.33;;;10.70;96.70;;;;;;4975935;28;20057;-88
2021/04/02 14:58:02;;;;;;;5.15;2.20;;;10.70;97.20;;;;;;4976058;28;20057;-87
2021/04/02 15:00:29;;;;;;;6.22;3.78;;;10.80;95.50;;;;;;4958539;28;20062;-78
2021/04/02 15:02:56;;;;;;;8.93;2.90;;;10.80;95.60;;;;;;4957386;29;20113;-92
2021/04/02 15:05:23;;;;;;;6.57;2.80;;;10.80;96.70;;;;;;4963999;29;20472;-88
2021/04/02 15:07:50;;;;;;;6.55;3.15;;;10.80;98.00;;;;;;4959874;29;20051;-87
2021/04/02 15:10:18;;;;;;;7.03;3.22;;;10.70;97.50;;;;;;4962269;29;20094;-86
2021/04/02 15:12:45;;;;;;;6.88;2.42;;;10.80;97.60;;;;;;4956878;29;20055;-89
2021/04/02 15:15:13;;;;;;;3.72;2.38;;;10.80;96.90;;;;;;4956318;29;20436;-88
2021/04/02 15:17:39;;;;;;;5.68;2.33;;;10.90;96.90;;;;;;4955959;28;20051;-89
2021/04/02 15:20:07;;;;;;;6.50;3.75;;;10.90;97.10;;;;;;4956358;29;20610;-89
2021/04/02 15:22:34;;;;;;;6.85;2.45;;;10.90;98.40;;;;;;4956365;29;20486;-88
2021/04/02 15:25:01;;;;;;;6.05;2.25;;;10.90;98.40;;;;;;4956394;29;20058;-88
2021/04/02 15:27:28;;;;;;;7.25;2.42;;;10.90;98.50;;;;;;4956501;29;20043;-88
2021/04/02 15:29:57;;;;;;;6.38;2.47;;;10.90;97.80;;;;;;4956361;29;20055;-88
2021/04/02 15:32:23;;;;;;;3.47;2.08;;;10.90;97.20;;;;;;4956424;29;20432;-89
2021/04/02 15:34:50;;;;;;;6.95;2.40;;;11.00;95.50;;;;;;4956565;29;20062;-88
2021/04/02 15:37:18;;;;;;;3.22;1.90;;;11.10;94.80;;;;;;4955890;29;20047;-89
2021/04/02 15:39:45;;;;;;;4.95;2.03;;;11.00;96.10;;;;;;4955857;29;20066;-89
2021/04/02 15:42:13;;;;;;;6.18;2.17;;;11.00;95.20;;;;;;4956652;29;20055;-90
2021/04/02 15:44:40;;;;;;;7.03;1.77;;;11.10;93.70;;;;;;4956315;29;20380;-89
2021/04/02 15:47:11;;;;;;;6.95;2.33;;;11.10;93.70;;;;;;4956560;29;20057;-88
2021/04/02 15:49:38;;;;;;;4.63;1.77;;;11.10;94.40;;;;;;4956257;29;20051;-87
2021/04/02 15:52:05;;;;;;;4.72;1.90;;;11.10;95.80;;;;;;4956280;29;20055;-89
2021/04/02 15:54:31;;;;;;;9.23;3.78;;;11.10;95.10;;;;;;4956200;29;20047;-89
2021/04/02 15:56:58;;;;;;;6.90;2.30;;;11.10;96.60;;;;;;4956329;29;20055;-91
2021/04/02 15:59:25;;;;;;;9.43;3.13;;;11.20;94.40;;;;;;4956173;28;20121;-90
2021/04/02 16:01:52;;;;;;;8.88;2.92;;;11.20;94.20;;;;;;4956131;29;20053;-90
2021/04/02 16:04:19;;;;;;;11.35;2.28;;;11.30;92.40;;;;;;4956003;29;20453;-88
2021/04/02 16:06:46;;;;;;;7.60;2.53;;;11.30;94.30;;;;;;4956397;29;20066;-89
2021/04/02 16:09:13;;;;;;;8.73;2.15;;;11.40;92.20;;;;;;4956010;29;20053;-88
2021/04/02 16:11:40;;;;;;;4.40;2.33;;;11.40;92.90;;;;;;4955980;29;20051;-88
2021/04/02 16:14:07;;;;;;;7.97;2.85;;;11.40;95.50;;;;;;4956202;29;20055;-88
2021/04/02 16:16:34;;;;;;;6.93;2.80;;;11.40;95.50;;;;;;4955760;29;20099;-88
2021/04/02 16:19:01;;;;;;;8.30;2.05;;;11.40;93.30;;;;;;4955850;29;20147;-89
2021/04/02 16:21:27;;;;;;;9.32;2.25;;;11.40;96.60;;;;;;4948744;29;20370;-89
2021/04/02 16:23:55;;;;;;;6.05;2.67;;;11.40;95.80;;;;;;4936973;29;20066;-89
2021/04/02 16:26:22;;;;;;;20.02;5.40;;;11.50;95.40;;;;;;4937029;29;20098;-88
2021/04/02 16:28:48;;;;;;;10.00;3.78;;;11.50;95.50;;;;;;4938506;29;20055;-89
2021/04/02 16:31:15;;;;;;;11.95;3.00;;;11.50;97.50;;;;;;4940282;29;20374;-88
2021/04/02 16:33:43;;;;;;;5.20;2.17;;;11.50;96.10;;;;;;4940159;29;20381;-87
2021/04/02 16:36:09;;;;;;;11.35;1.90;;;11.40;95.70;;;;;;4939880;29;20475;-87
2021/04/02 16:38:36;;;;;;;8.45;2.38;;;11.40;96.10;;;;;;4940343;29;20127;-87
2021/04/02 16:41:03;;;;;;;6.78;2.58;;;11.30;98.50;;;;;;4940400;29;20073;-88
2021/04/02 16:43:29;;;;;;;7.18;2.67;;;11.30;95.50;;;;;;4940157;29;20055;-87
2021/04/02 16:45:56;;;;;;;7.40;2.47;;;11.20;96.40;;;;;;4939678;29;20056;-88
2021/04/02 16:48:23;;;;;;;6.03;2.42;;;11.20;97.00;;;;;;4940107;29;20061;-88
2021/04/02 16:50:50;;;;;;;8.00;2.30;;;11.10;96.20;;;;;;4940125;29;20055;-89
2021/04/02 16:53:17;;;;;;;8.10;2.42;;;11.00;96.40;;;;;;4939804;29;20064;-88
2021/04/02 16:55:43;;;;;;;6.65;2.58;;;10.90;97.70;;;;;;4940035;29;20060;-88
2021/04/02 16:58:10;;;;;;;9.57;2.10;;;10.80;99.50;;;;;;4939649;29;20062;-89
2021/04/02 17:00:37;;;;;;;5.38;2.75;;;10.70;98.80;;;;;;4939370;29;20060;-89
2021/04/02 17:03:03;;;;;;;6.32;2.30;;;10.70;99.10;;;;;;4940185;29;20078;-88
2021/04/02 17:05:30;;;;;;;5.18;2.63;;;10.70;98.10;;;;;;4939763;29;20056;-89
2021/04/02 17:07:58;;;;;;;7.50;2.00;;;10.60;97.70;;;;;;4939702;29;20495;-90
2021/04/02 17:10:24;;;;;;;5.93;1.83;;;10.50;98.50;;;;;;4941181;29;20461;-91
2021/04/02 17:12:51;;;;;;;4.60;2.20;;;10.50;99.00;;;;;;4940517;29;20110;-94
2021/04/02 17:15:18;;;;;;;9.60;2.72;;;10.40;99.90;;;;;;4939323;29;20047;-89
2021/04/02 17:17:45;;;;;;;7.18;2.25;;;10.30;99.90;;;;;;4939250;29;20051;-90
2021/04/02 17:20:13;;;;;;;6.30;2.53;;;10.30;99.90;;;;;;4939299;29;20118;-89
2021/04/02 17:22:40;;;;;;;7.95;2.22;;;10.30;99.10;;;;;;4936726;29;20047;-88
2021/04/02 17:25:09;;;;;;;6.75;1.83;;;10.20;99.90;;;;;;4938905;29;20059;-90
2021/04/02 17:27:36;;;;;;;9.55;2.88;;;10.20;99.90;;;;;;4939347;29;20400;-88
2021/04/02 17:30:03;;;;;;;12.32;2.35;;;10.20;99.90;;;;;;4939318;29;20047;-90
2021/04/02 17:32:29;;;;;;;6.45;2.13;;;10.20;99.90;;;;;;4939389;29;20062;-89
2021/04/02 17:34:56;;;;;;;10.82;3.60;;;10.20;99.90;;;;;;4939129;29;20051;-88
2021/04/02 17:37:23;;;;;;;9.50;2.55;;;10.20;99.90;;;;;;4939267;29;20052;-90
2021/04/02 17:39:50;;;;;;;2.60;1.60;;;10.20;99.90;;;;;;4938801;29;20118;-88
2021/04/02 17:42:17;;;;;;;8.25;1.60;;;10.30;99.90;;;;;;4938956;29;20048;-89
2021/04/02 17:44:47;;;;;;;8.00;1.48;;;10.20;99.90;;;;;;4938631;29;20051;-88
2021/04/02 17:47:14;;;;;;;6.40;1.60;;;10.20;99.90;;;;;;4938966;29;20047;-90
2021/04/02 17:49:40;;;;;;;4.60;1.70;;;10.10;99.90;;;;;;4938774;29;20055;-88
2021/04/02 17:52:07;;;;;;;7.18;1.40;;;10.00;99.90;;;;;;4938934;29;20055;-89
2021/04/02 17:54:34;;;;;;;4.18;1.25;;;10.00;99.90;;;;;;4938816;29;20055;-87
2021/04/02 17:57:00;;;;;;;2.13;0.93;;;10.00;99.90;;;;;;4938472;29;20531;-86
2021/04/02 17:59:28;;;;;;;4.68;1.27;;;9.90;99.90;;;;;;4938439;29;20063;-88
2021/04/02 18:01:55;;;;;;;3.20;1.50;;;9.80;99.90;;;;;;4938628;29;20052;-86
2021/04/02 18:04:21;;;;;;;4.07;1.10;;;9.80;99.90;;;;;;4938684;29;20047;-87
2021/04/02 18:06:48;;;;;;;3.72;1.50;;;9.80;99.90;;;;;;4938343;29;20481;-88
2021/04/02 18:09:15;;;;;;;2.90;1.27;;;9.80;99.90;;;;;;4938594;29;20065;-89
2021/04/02 18:11:41;;;;;;;5.75;1.35;;;9.80;99.90;;;;;;4938460;29;20146;-89
2021/04/02 18:14:08;;;;;;;3.90;1.40;;;9.80;99.90;;;;;;4938472;29;20544;-88
2021/04/02 18:16:35;;;;;;;4.97;1.40;;;9.80;99.90;;;;;;4938048;29;20052;-88
2021/04/02 18:19:02;;;;;;;4.35;1.65;;;9.80;99.90;;;;;;4938330;29;20048;-88
2021/04/02 18:21:29;;;;;;;3.10;1.17;;;9.70;99.90;;;;;;4938185;29;20048;-88
2021/04/02 18:23:56;;;;;;;5.45;1.52;;;9.70;99.90;;;;;;4938497;29;20056;-87
2021/04/02 18:26:23;;;;;;;6.97;2.00;;;9.70;99.90;;;;;;4938129;29;20091;-88
2021/04/02 18:28:49;;;;;;;3.80;1.77;;;9.70;99.90;;;;;;4938087;29;20056;-87
2021/04/02 18:31:16;;;;;;;4.88;2.28;;;9.60;99.90;;;;;;4938222;29;20048;-88
2021/04/02 18:33:44;;;;;;;3.30;1.55;;;9.60;99.90;;;;;;4938009;29;20048;-87
2021/04/02 18:36:11;;;;;;;5.13;2.10;;;9.60;99.90;;;;;;4938011;29;20055;-88
2021/04/02 18:38:37;;;;;;;7.95;2.70;;;9.70;99.90;;;;;;4938015;29;20075;-89
2021/04/02 18:41:04;;;;;;;7.32;2.45;;;9.70;99.90;;;;;;4938190;29;20051;-89
2021/04/02 18:43:31;;;;;;;5.57;2.45;;;9.70;99.90;;;;;;4937855;29;20063;-88
2021/04/02 18:45:57;;;;;;;9.25;2.70;;;9.60;99.90;;;;;;4937380;29;20077;-88
2021/04/02 18:48:24;;;;;;;8.88;2.85;;;9.60;99.90;;;;;;4938119;29;20051;-87
2021/04/02 18:50:52;;;;;;;4.32;2.25;;;9.60;99.90;;;;;;4937940;29;20051;-88
2021/04/02 18:53:18;;;;;;;11.95;2.92;;;9.60;99.90;;;;;;4936972;29;20495;-88
2021/04/02 18:55:45;;;;;;;6.20;2.85;;;9.60;99.90;;;;;;4937901;29;20055;-89
2021/04/02 18:58:11;;;;;;;6.97;2.80;;;9.60;99.90;;;;;;4937462;29;20110;-89
2021/04/02 19:00:38;;;;;;;8.65;2.95;;;9.60;99.90;;;;;;4956051;28;20059;-88
2021/04/02 19:03:06;;;;;;;9.52;3.08;;;9.60;99.90;;;;;;4956951;29;20051;-88
2021/04/02 19:05:33;;;;;;;7.10;2.95;;;9.60;99.90;;;;;;4956907;29;20047;-87
2021/04/02 19:08:00;;;;;;;7.95;2.72;;;9.60;99.90;;;;;;4956703;29;20051;-86
2021/04/02 19:10:27;;;;;;;9.35;3.00;;;9.50;99.90;;;;;;4956947;29;20059;-89
2021/04/02 19:12:53;;;;;;;6.13;3.08;;;9.50;99.90;;;;;;4956969;29;20058;-89
2021/04/02 19:15:20;;;;;;;8.52;3.63;;;9.50;99.90;;;;;;4956418;29;20066;-88
2021/04/02 19:17:47;;;;;;;7.93;3.30;;;9.50;99.90;;;;;;4956784;29;20376;-90
2021/04/02 19:20:14;;;;;;;11.13;3.35;;;9.50;99.90;;;;;;4956828;29;20047;-89
2021/04/02 19:22:41;;;;;;;11.73;3.85;;;9.50;99.90;;;;;;4956870;29;20365;-89
2021/04/02 19:25:09;;;;;;;8.18;3.15;;;9.40;99.90;;;;;;4956554;29;20063;-89
2021/04/02 19:27:36;;;;;;;8.65;4.07;;;9.30;99.90;;;;;;4956405;29;20059;-89
2021/04/02 19:30:03;;;;;;;11.00;3.47;;;9.30;99.90;;;;;;4956270;29;20065;-89
2021/04/02 19:32:30;;;;;;;8.80;3.33;;;9.20;99.90;;;;;;4956583;29;20066;-89
2021/04/02 19:34:57;;;;;;;10.63;3.13;;;9.20;99.90;;;;;;4956599;29;20086;-89
2021/04/02 19:37:23;;;;;;;8.98;3.33;;;9.20;99.90;;;;;;4956712;29;20050;-90
2021/04/02 19:39:50;;;;;;;11.75;4.13;;;9.20;99.90;;;;;;4956783;29;20063;-89
2021/04/02 19:42:17;;;;;;;13.40;3.33;;;9.20;99.90;;;;;;4956567;29;20065;-89
2021/04/02 19:44:44;;;;;;;8.82;4.10;;;9.10;99.90;;;;;;4956619;29;20057;-79
2021/04/02 19:47:11;;;;;;;11.55;3.35;;;9.10;99.90;;;;;;4956598;29;20047;-92
2021/04/02 19:49:37;;;;;;;11.93;3.83;;;9.00;99.90;;;;;;4956822;29;20059;-93
2021/04/02 19:52:05;;;;;;;10.15;3.55;;;8.90;99.90;;;;;;4956939;29;20126;-92
2021/04/02 19:54:32;;;;;;;13.65;4.10;;;8.90;99.90;;;;;;4956445;29;20130;-89
2021/04/02 19:56:59;;;;;;;8.27;3.30;;;8.90;99.90;;;;;;4956768;29;20055;-91
2021/04/02 19:59:27;;;;;;;10.40;3.67;;;8.80;99.90;;;;;;4947475;28;20056;-90
2021/04/02 20:01:53;;;;;;;14.35;3.70;;;8.80;99.90;;;;;;4937397;29;20143;-92
2021/04/02 20:04:20;;;;;;;6.35;2.85;;;8.80;99.90;;;;;;4940301;29;20143;-91
2021/04/02 20:06:47;;;;;;;9.25;3.53;;;8.80;99.90;;;;;;4940978;29;20055;-91
2021/04/02 20:09:13;;;;;;;8.68;3.05;;;8.70;99.90;;;;;;4940913;29;20528;-88
2021/04/02 20:11:40;;;;;;;9.68;3.95;;;8.80;99.90;;;;;;4940872;29;20055;-88
2021/04/02 20:14:07;;;;;;;13.68;4.15;;;8.70;99.90;;;;;;4940299;29;20281;-91
2021/04/02 20:16:34;;;;;;;11.40;4.43;;;8.70;99.90;;;;;;4940130;29;20079;-88
2021/04/02 20:19:01;;;;;;;9.68;3.45;;;8.70;99.90;;;;;;4940712;29;20464;-90
2021/04/02 20:21:27;;;;;;;9.35;3.85;;;8.60;99.90;;;;;;4940532;29;20121;-88
2021/04/02 20:23:54;;;;;;;12.35;4.50;;;8.60;99.90;;;;;;4940668;29;20369;-89
2021/04/02 20:26:21;;;;;;;13.88;4.22;;;8.50;99.90;;;;;;4940628;29;20051;-91
2021/04/02 20:28:47;;;;;;;12.75;4.93;;;8.40;99.90;;;;;;4940526;29;20088;-87
2021/04/02 20:31:14;;;;;;;9.57;4.70;;;8.40;99.90;;;;;;4940216;29;20170;-88
2021/04/02 20:33:41;;;;;;;10.23;3.97;;;8.30;99.90;;;;;;4940325;29;20048;-88
2021/04/02 20:36:08;;;;;;;10.40;4.22;;;8.20;99.90;;;;;;4940387;29;20474;-89
2021/04/02 20:38:35;;;;;;;14.50;4.85;;;8.20;99.90;;;;;;4940069;29;20354;-88
2021/04/02 20:41:02;;;;;;;11.05;4.60;;;8.10;99.90;;;;;;4940482;29;20056;-88
2021/04/02 20:43:28;;;;;;;16.40;4.45;;;8.10;99.90;;;;;;4940171;29;20066;-88
2021/04/02 20:45:55;;;;;;;10.27;4.45;;;8.10;99.90;;;;;;4940022;29;20057;-86
2021/04/02 20:48:21;;;;;;;9.70;4.00;;;8.00;99.90;;;;;;4940000;29;20114;-88
2021/04/02 20:50:49;;;;;;;13.63;4.43;;;8.00;99.90;;;;;;4940103;29;20067;-88
2021/04/02 20:53:16;;;;;;;12.55;5.05;;;8.00;99.90;;;;;;4940000;29;20468;-87
2021/04/02 20:55:43;;;;;;;14.00;5.40;;;7.90;99.90;;;;;;4939582;29;20055;-88
2021/04/02 20:58:10;;;;;;;13.70;5.18;;;8.00;99.90;;;;;;4939535;29;20458;-88
2021/04/02 21:00:37;;;;;;;18.30;6.13;;;8.00;99.90;;;;;;4939523;28;20064;-88
2021/04/02 21:03:03;;;;;;;13.80;4.75;;;7.90;99.90;;;;;;4939767;29;20051;-88
2021/04/02 21:05:30;;;;;;;17.67;4.75;;;7.90;99.90;;;;;;4939856;29;20134;-87
2021/04/02 21:07:58;;;;;;;12.27;5.15;;;7.90;99.90;;;;;;4939825;29;20052;-86
2021/04/02 21:10:25;;;;;;;12.20;4.43;;;7.90;99.90;;;;;;4939798;29;20457;-88
2021/04/02 21:12:52;;;;;;;14.10;4.97;;;7.90;99.90;;;;;;4939533;29;20138;-86
2021/04/02 21:15:18;;;;;;;14.50;5.28;;;7.80;99.90;;;;;;4938338;29;20051;-87
2021/04/02 21:17:45;;;;;;;15.20;5.50;;;7.80;99.90;;;;;;4939520;29;20083;-86
2021/04/02 21:20:13;;;;;;;10.35;5.20;;;7.80;99.90;;;;;;4939485;29;20090;-86
2021/04/02 21:22:40;;;;;;;19.63;6.68;;;7.80;99.90;;;;;;4939467;29;20052;-85
2021/04/02 21:25:09;;;;;;;17.25;7.88;;;7.70;99.90;;;;;;4939487;29;20110;-87
2021/04/02 21:27:35;;;;;;;17.17;5.60;;;7.70;99.90;;;;;;4939725;29;20106;-85
2021/04/02 21:30:04;;;;;;;17.00;6.45;;;7.70;99.90;;;;;;4939322;29;20117;-86
2021/04/02 21:32:30;;;;;;;14.60;6.57;;;7.60;99.90;;;;;;4939572;29;20062;-86
